CST,Max TemperatureF,Mean TemperatureF,Min TemperatureF,Max Dew PointF,MeanDew PointF,Min DewpointF,Max Humidity, Mean Humidity, Min Humidity, Max Sea Level PressureIn, Mean Sea Level PressureIn, Min Sea Level PressureIn, Max VisibilityMiles, Mean VisibilityMiles, Min VisibilityMiles, Max Wind SpeedMPH, Mean Wind SpeedMPH, Max Gust SpeedMPH,PrecipitationIn, CloudCover, Events, WindDirDegrees
2013-11-1,64,52,41,45,40,39,93,70,42,30.11,29.91,29.78,10,10,10,22,10,28,0.00,1,,292
2013-11-2,59,48,37,39,33,28,87,59,31,30.31,30.21,30.11,10,10,10,16,10,20,0.00,0,,332
2013-11-3,64,52,39,41,36,32,87,58,37,30.15,30.00,29.87,10,10,10,28,14,36,0.00,1,Rain,153
2013-11-4,64,56,48,55,49,41,94,74,52,30.05,29.95,29.85,10,10,10,22,14,29,0.01,5,Rain,166
2013-11-5,62,53,44,61,55,41,100,93,87,30.06,29.95,29.84,10,8,2,25,12,32,1.23,8,Rain-Thunderstorm,155
2013-11-6,50,44,37,41,36,34,93,79,58,30.35,30.25,30.07,10,10,10,24,14,30,0.02,3,Rain,332
2013-11-7,62,47,32,41,36,32,100,72,34,30.45,30.38,30.30,10,7,0,8,3,,0.00,0,,255
2013-11-8,64,52,39,37,35,32,93,57,30,30.30,30.10,29.95,10,9,3,37,14,48,0.00,0,,182
2013-11-9,64,52,41,46,41,36,87,68,49,30.26,30.12,30.01,10,10,5,12,7,,0.00,0,,133
2013-11-10,60,52,44,50,47,43,100,82,63,30.37,30.29,30.24,10,10,10,10,5,,0.00,8,,109
2013-11-11,62,50,37,55,47,28,94,85,70,30.55,30.26,30.18,10,9,3,30,9,39,0.00,8,Rain,137
2013-11-12,37,30,24,28,16,10,86,58,33,30.85,30.74,30.57,10,10,8,28,17,37,0.00,1,,3
2013-11-13,50,34,19,23,19,16,93,59,28,30.69,30.47,30.23,10,10,10,20,7,26,0.00,0,,176
2013-11-14,57,44,32,32,28,25,80,57,33,30.22,30.06,29.94,10,10,10,23,11,29,0.00,3,,164
2013-11-15,64,50,37,50,41,32,100,71,48,29.97,29.82,29.68,10,10,10,22,10,26,0.00,1,,151
2013-11-16,75,65,55,57,55,50,94,70,47,29.68,29.54,29.44,10,10,5,33,20,46,0.00,3,Thunderstorm,180
2013-11-17,68,54,41,57,36,21,77,46,19,30.16,29.78,29.45,10,10,10,25,17,36,0.00,0,,291
2013-11-18,62,47,32,32,27,18,87,52,19,30.29,30.21,30.13,10,10,6,13,6,,0.00,0,,54
2013-11-19,59,50,42,36,31,25,66,47,29,30.21,30.05,29.91,10,10,10,24,11,31,0.00,6,,133
2013-11-20,62,56,50,48,39,28,72,56,38,29.91,29.85,29.80,10,10,10,23,17,29,0.00,8,,157
2013-11-21,55,42,28,52,39,23,100,89,77,30.47,30.12,29.88,10,6,1,30,14,37,0.00,8,Rain-Thunderstorm,14
2013-11-22,32,29,26,23,21,19,86,73,60,30.61,30.56,30.47,10,10,10,26,20,34,0.00,8,Rain,356
2013-11-23,37,30,24,21,16,9,60,51,41,30.71,30.66,30.59,10,10,10,20,13,26,0.00,5,,16
2013-11-24,28,26,23,16,12,10,69,57,47,30.70,30.54,30.31,10,10,9,14,8,18,0.00,4,,97
2013-11-25,35,32,28,30,25,16,93,75,59,30.30,30.23,30.19,10,10,8,10,7,,0.00,8,,211
2013-11-26,42,32,23,28,23,16,93,74,49,30.44,30.30,30.20,10,10,7,22,10,29,0.00,1,,337
2013-11-27,37,26,15,18,14,10,86,63,38,30.47,30.37,30.21,10,10,10,10,7,,0.00,0,,220
2013-11-28,53,40,26,34,27,18,87,69,44,30.41,30.29,30.20,10,10,10,9,5,,0.00,0,,140
2013-11-29,59,42,24,32,27,23,93,66,31,30.42,30.32,30.19,10,10,5,21,8,25,0.00,0,,130
2013-11-30,59,46,32,41,36,28,100,79,51,30.19,30.13,30.08,10,9,3,12,7,,0.00,0,,185